createdAt,value
2018-11-23T00:02:27.217Z,56.47
2018-11-23T00:04:54.917Z,58.23
2018-11-23T00:07:22.650Z,52.50
2018-11-23T00:09:50.326Z,51.00
2018-11-23T00:12:18.101Z,57.80
2018-11-23T00:14:45.854Z,64.57
2018-11-23T00:17:13.622Z,61.30
2018-11-23T00:19:41.361Z,60.37
2018-11-23T00:31:56.897Z,55.83
2018-11-23T00:34:24.590Z,53.70
2018-11-23T00:39:19.598Z,53.10
2018-11-23T00:41:47.277Z,59.23
2018-11-23T00:44:15.001Z,63.30
2018-11-23T00:46:42.694Z,56.30
2018-11-23T00:49:10.430Z,61.85
2018-11-23T00:51:38.126Z,56.80
2018-11-23T00:54:05.865Z,64.80
2018-11-23T00:56:33.530Z,62.23
2018-11-23T00:59:01.234Z,65.45
2018-11-23T01:01:33.314Z,59.80
2018-11-23T01:04:01.037Z,67.70
2018-11-23T01:06:28.776Z,64.30
2018-11-23T01:08:56.474Z,64.50
2018-11-23T01:11:24.189Z,67.30
2018-11-23T01:13:51.934Z,65.20
2018-11-23T01:16:19.637Z,75.57
2018-11-23T01:18:47.341Z,66.63
2018-11-23T01:21:15.045Z,70.10
2018-11-23T01:23:42.738Z,66.10
2018-11-23T01:26:10.487Z,65.93
2018-11-23T01:28:38.170Z,71.75
2018-11-23T01:31:05.917Z,73.30
2018-11-23T01:33:33.590Z,78.30
2018-11-23T01:36:01.258Z,86.30
2018-11-23T01:38:29.005Z,79.03
2018-11-23T01:40:56.646Z,78.60
2018-11-23T01:43:24.349Z,78.30
2018-11-23T01:45:52.078Z,87.03
2018-11-23T01:48:19.761Z,80.03
2018-11-23T01:50:47.429Z,79.07
2018-11-23T01:53:15.178Z,82.87
2018-11-23T01:55:42.846Z,90.50
2018-11-23T01:58:11.517Z,81.57
2018-11-23T02:00:39.215Z,86.30
2018-11-23T02:03:06.858Z,76.37
2018-11-23T02:08:01.557Z,83.87
2018-11-23T02:10:29.230Z,89.30
2018-11-23T02:12:56.917Z,105.97
2018-11-23T02:15:24.649Z,90.13
2018-11-23T02:17:52.641Z,98.07
2018-11-23T02:20:21.150Z,95.87
2018-11-23T02:22:48.862Z,92.60
2018-11-23T02:25:16.534Z,88.57
2018-11-23T02:27:44.205Z,91.97
2018-11-23T02:30:12.865Z,100.77
2018-11-23T02:32:40.732Z,90.43
2018-11-23T02:35:08.405Z,99.20
2018-11-23T02:37:36.058Z,87.87
2018-11-23T02:40:03.798Z,98.30
2018-11-23T02:42:31.490Z,99.23
2018-11-23T02:44:59.169Z,111.50
2018-11-23T02:47:26.827Z,106.17
2018-11-23T02:49:54.554Z,113.70
2018-11-23T02:52:22.240Z,114.23
2018-11-23T02:54:49.923Z,117.17
2018-11-23T02:57:17.688Z,119.53
2018-11-23T02:59:45.421Z,116.27
2018-11-23T03:02:13.118Z,110.93
2018-11-23T03:04:40.846Z,107.00
2018-11-23T03:07:08.545Z,113.83
2018-11-23T03:09:36.330Z,115.30
2018-11-23T03:12:04.035Z,123.33
2018-11-23T03:14:32.696Z,114.77
2018-11-23T03:17:00.428Z,119.30
2018-11-23T03:19:28.166Z,102.87
2018-11-23T03:21:55.842Z,109.20
2018-11-23T03:24:23.579Z,107.17
2018-11-23T03:26:51.264Z,107.40
2018-11-23T03:29:19.005Z,110.50
2018-11-23T03:31:47.720Z,106.27
2018-11-23T03:34:15.469Z,109.40
2018-11-23T03:36:43.126Z,109.73
2018-11-23T03:39:10.817Z,108.97
2018-11-23T03:41:38.542Z,121.03
2018-11-23T03:44:06.281Z,114.90
2018-11-23T03:46:33.970Z,120.95
2018-11-23T03:49:01.709Z,115.50
2018-11-23T03:51:29.397Z,105.63
2018-11-23T03:53:57.122Z,110.47
2018-11-23T03:56:24.874Z,116.23
2018-11-23T03:58:52.598Z,119.30
2018-11-23T04:01:20.274Z,113.40
2018-11-23T04:03:48.038Z,115.57
2018-11-23T04:06:15.877Z,126.85
2018-11-23T04:08:43.557Z,114.67
2018-11-23T04:11:11.220Z,121.20
2018-11-23T04:13:38.905Z,122.17
2018-11-23T04:16:06.629Z,119.73
2018-11-23T04:18:34.313Z,122.10
2018-11-23T04:21:02.840Z,125.53
2018-11-23T04:25:59.012Z,124.13
2018-11-23T04:28:26.917Z,124.70
2018-11-23T04:30:54.735Z,114.15
2018-11-23T04:33:22.573Z,117.37
2018-11-23T04:38:17.270Z,119.03
2018-11-23T04:40:45.018Z,123.50
2018-11-23T04:43:12.769Z,140.00
2018-11-23T04:45:40.433Z,122.40
2018-11-23T04:48:08.208Z,125.67
2018-11-23T04:50:35.960Z,124.97
2018-11-23T04:53:03.645Z,133.00
2018-11-23T04:55:31.468Z,120.00
2018-11-23T04:57:59.164Z,123.30
2018-11-23T05:00:26.921Z,118.93
2018-11-23T05:02:54.688Z,127.57
2018-11-23T05:05:22.429Z,128.65
2018-11-23T05:07:50.105Z,126.70
2018-11-23T05:10:18.318Z,121.70
2018-11-23T05:12:46.038Z,122.43
2018-11-23T05:15:14.990Z,130.43
2018-11-23T05:17:43.047Z,118.77
2018-11-23T05:20:11.497Z,124.33
2018-11-23T05:22:39.585Z,128.03
2018-11-23T05:25:09.207Z,121.37
2018-11-23T05:27:37.035Z,121.83
2018-11-23T05:30:06.667Z,121.03
2018-11-23T05:32:34.397Z,128.97
2018-11-23T05:35:02.225Z,120.27
2018-11-23T05:37:29.934Z,124.20
2018-11-23T05:39:57.621Z,136.30
2018-11-23T05:42:25.365Z,128.80
2018-11-23T05:44:53.032Z,138.63
2018-11-23T05:47:20.716Z,134.13
2018-11-23T05:49:48.438Z,138.83
2018-11-23T05:52:16.185Z,132.60
2018-11-23T05:54:43.881Z,127.53
2018-11-23T05:57:11.630Z,131.33
2018-11-23T05:59:39.306Z,121.47
2018-11-23T06:02:06.957Z,134.50
2018-11-23T06:04:34.630Z,124.03
2018-11-23T06:07:02.394Z,124.93
2018-11-23T06:09:30.065Z,128.57
2018-11-23T06:11:57.821Z,120.43
2018-11-23T06:14:25.581Z,129.20
2018-11-23T06:16:53.254Z,132.43
2018-11-23T06:19:21.005Z,121.00
2018-11-23T06:21:48.677Z,117.00
2018-11-23T06:24:16.417Z,118.13
2018-11-23T06:26:44.097Z,124.30
2018-11-23T06:29:11.777Z,137.70
2018-11-23T06:31:39.529Z,124.80
2018-11-23T06:34:07.263Z,120.33
2018-11-23T06:36:34.945Z,121.43
2018-11-23T06:39:02.675Z,134.70
2018-11-23T06:41:30.381Z,130.20
2018-11-23T06:43:58.093Z,121.40
2018-11-23T06:46:25.801Z,126.90
2018-11-23T06:48:53.509Z,110.93
2018-11-23T06:51:21.249Z,130.97
2018-11-23T06:53:50.413Z,122.47
2018-11-23T06:56:18.078Z,131.43
2018-11-23T06:58:45.769Z,131.73
2018-11-23T07:01:13.509Z,130.37
2018-11-23T07:03:41.212Z,123.80
2018-11-23T07:06:08.945Z,132.53
2018-11-23T07:08:36.693Z,131.43
2018-11-23T07:11:04.824Z,134.83
2018-11-23T07:13:33.082Z,129.07
2018-11-23T07:16:00.825Z,147.73
2018-11-23T07:18:29.531Z,128.17
2018-11-23T07:20:57.407Z,130.30
2018-11-23T07:23:25.297Z,120.23
2018-11-23T07:25:53.021Z,121.53
2018-11-23T07:28:20.753Z,112.30
2018-11-23T07:30:48.456Z,119.93
2018-11-23T07:33:16.198Z,128.87
2018-11-23T07:35:43.925Z,121.77
2018-11-23T07:38:11.650Z,113.90
2018-11-23T07:41:48.017Z,125.47
2018-11-23T07:44:15.747Z,126.77
2018-11-23T07:46:43.441Z,104.63
2018-11-23T07:49:11.161Z,124.53
2018-11-23T07:51:39.190Z,118.57
2018-11-23T07:54:06.602Z,108.50
2018-11-23T07:56:34.275Z,113.63
2018-11-23T07:59:02.035Z,118.87
2018-11-23T08:01:29.710Z,121.40
2018-11-23T08:03:57.453Z,130.80
2018-11-23T08:06:25.140Z,114.87
2018-11-23T08:08:52.873Z,108.70
2018-11-23T08:11:20.565Z,110.83
2018-11-23T08:13:48.298Z,123.10
2018-11-23T08:16:15.972Z,118.53
2018-11-23T08:18:43.730Z,116.47
2018-11-23T08:21:11.397Z,120.37
2018-11-23T08:23:39.093Z,109.67
2018-11-23T08:26:06.817Z,118.80
2018-11-23T08:28:34.484Z,131.20
2018-11-23T08:31:02.146Z,123.83
2018-11-23T08:33:29.818Z,120.73
2018-11-23T08:35:57.510Z,124.53
2018-11-23T08:38:25.253Z,122.67
2018-11-23T08:40:53.945Z,131.23
2018-11-23T08:43:21.695Z,117.63
2018-11-23T08:45:49.458Z,123.80
2018-11-23T08:48:17.201Z,122.40
2018-11-23T08:50:44.884Z,112.40
2018-11-23T08:53:12.541Z,114.73
2018-11-23T08:55:40.209Z,119.43
2018-11-23T08:58:11.477Z,110.67
2018-11-23T09:00:39.208Z,118.13
2018-11-23T09:03:06.885Z,109.23
2018-11-23T09:05:34.665Z,119.40
2018-11-23T09:08:03.414Z,112.17
2018-11-23T09:10:31.105Z,112.87
2018-11-23T09:13:00.584Z,97.57
2018-11-23T09:15:29.306Z,104.67
2018-11-23T09:17:57.041Z,101.97
2018-11-23T09:20:26.756Z,105.03
2018-11-23T09:22:54.466Z,103.47
2018-11-23T09:25:22.842Z,118.30
2018-11-23T09:27:50.580Z,102.50
2018-11-23T09:30:21.661Z,107.13
2018-11-23T09:32:50.112Z,104.93
2018-11-23T09:35:17.850Z,99.23
2018-11-23T09:37:45.969Z,92.23
2018-11-23T09:40:16.104Z,91.93
2018-11-23T09:42:43.817Z,87.07
2018-11-23T09:45:14.141Z,95.93
2018-11-23T09:47:41.969Z,103.87
2018-11-23T09:50:11.222Z,91.17
2018-11-23T09:52:39.193Z,91.97
2018-11-23T09:55:07.473Z,91.20
2018-11-23T09:57:35.205Z,83.03
2018-11-23T10:00:02.866Z,90.20
2018-11-23T10:02:30.513Z,90.93
2018-11-23T10:04:58.182Z,82.67
2018-11-23T10:07:25.851Z,86.50
2018-11-23T10:09:53.737Z,86.27
2018-11-23T10:12:21.472Z,84.10
2018-11-23T10:14:49.169Z,85.23
2018-11-23T10:17:16.905Z,78.40
2018-11-23T10:19:44.565Z,78.77
2018-11-23T10:22:12.238Z,76.43
2018-11-23T10:24:39.986Z,74.50
2018-11-23T10:27:08.658Z,81.60
2018-11-23T10:29:36.347Z,77.80
2018-11-23T10:32:04.081Z,75.30
2018-11-23T10:34:31.765Z,71.67
2018-11-23T10:36:59.442Z,78.17
2018-11-23T10:39:27.182Z,76.43
2018-11-23T10:41:54.854Z,74.13
2018-11-23T10:44:22.535Z,75.67
2018-11-23T10:46:50.257Z,73.00
2018-11-23T10:49:17.942Z,80.90
2018-11-23T10:51:45.629Z,71.30
2018-11-23T10:54:13.349Z,67.13
2018-11-23T10:56:41.058Z,78.77
2018-11-23T10:59:08.769Z,72.43
2018-11-23T11:01:42.094Z,71.47
2018-11-23T11:04:15.473Z,75.10
2018-11-23T11:06:49.290Z,67.00
2018-11-23T11:09:17.025Z,69.97
2018-11-23T11:11:44.714Z,74.23
2018-11-23T11:14:12.382Z,78.80
2018-11-23T11:16:40.081Z,71.37
2018-11-23T11:19:08.037Z,77.47
2018-11-23T11:21:35.765Z,72.77
2018-11-23T11:24:03.827Z,75.07
2018-11-23T11:26:31.507Z,75.23
2018-11-23T11:28:59.270Z,71.40
2018-11-23T11:31:27.166Z,76.90
2018-11-23T11:33:54.903Z,80.43
2018-11-23T11:36:22.593Z,82.07
2018-11-23T11:38:50.318Z,77.67
2018-11-23T11:41:17.998Z,79.50
2018-11-23T11:43:45.754Z,83.80
2018-11-23T11:46:13.416Z,80.33
2018-11-23T11:48:41.093Z,86.37
2018-11-23T11:51:09.485Z,79.60
2018-11-23T11:53:37.206Z,91.97
2018-11-23T11:56:05.118Z,89.57
2018-11-23T11:58:32.850Z,77.40
2018-11-23T12:01:00.602Z,90.17
2018-11-23T12:03:29.306Z,81.40
2018-11-23T12:05:56.967Z,91.67
2018-11-23T12:08:24.705Z,88.73
2018-11-23T12:10:52.385Z,89.87
2018-11-23T12:13:20.066Z,96.13
2018-11-23T12:15:47.815Z,93.07
2018-11-23T12:18:15.485Z,87.13
2018-11-23T12:20:43.169Z,92.57
2018-11-23T12:23:10.905Z,92.03
2018-11-23T12:25:38.565Z,97.43
2018-11-23T12:28:06.253Z,101.20
2018-11-23T12:30:34.050Z,98.20
2018-11-23T12:33:02.774Z,92.57
2018-11-23T12:35:30.472Z,91.10
2018-11-23T12:37:58.254Z,109.93
2018-11-23T12:40:25.990Z,98.67
2018-11-23T12:42:53.722Z,101.30
2018-11-23T12:45:22.504Z,104.73
2018-11-23T12:47:50.213Z,101.43
2018-11-23T12:50:19.141Z,106.80
2018-11-23T12:52:46.921Z,104.13
2018-11-23T12:55:15.042Z,109.70
2018-11-23T12:57:42.874Z,117.10
2018-11-23T13:00:16.912Z,114.03
2018-11-23T13:02:44.925Z,122.50
2018-11-23T13:05:13.643Z,105.77
2018-11-23T13:07:41.310Z,112.53
2018-11-23T13:10:09.103Z,100.87
2018-11-23T13:12:36.870Z,114.77
2018-11-23T13:15:04.657Z,133.47
2018-11-23T13:17:32.381Z,120.57
2018-11-23T13:20:01.110Z,123.13
2018-11-23T13:22:29.838Z,112.57
2018-11-23T13:24:57.514Z,120.70
2018-11-23T13:27:25.193Z,128.33
2018-11-23T13:29:52.936Z,116.50
2018-11-23T13:32:20.617Z,108.57
2018-11-23T13:34:48.361Z,126.50
2018-11-23T13:37:16.017Z,123.70
2018-11-23T13:39:43.941Z,129.47
2018-11-23T13:42:12.691Z,133.40
2018-11-23T13:44:40.421Z,129.70
2018-11-23T13:47:08.110Z,135.63
2018-11-23T13:49:35.784Z,135.40
2018-11-23T13:52:03.521Z,133.17
2018-11-23T13:54:31.196Z,138.20
2018-11-23T13:56:58.904Z,149.47
2018-11-23T13:59:26.613Z,145.33
2018-11-23T14:01:54.286Z,130.63
2018-11-23T14:04:22.018Z,127.40
2018-11-23T14:06:49.742Z,124.70
2018-11-23T14:09:17.453Z,127.03
2018-11-23T14:11:45.138Z,145.03
2018-11-23T14:14:12.799Z,136.90
2018-11-23T14:16:40.510Z,136.23
2018-11-23T14:19:09.250Z,148.83
2018-11-23T14:21:36.933Z,143.53
2018-11-23T14:24:05.035Z,135.37
2018-11-23T14:26:32.733Z,135.50
2018-11-23T14:29:01.437Z,142.00
2018-11-23T14:31:29.097Z,135.67
2018-11-23T14:33:56.808Z,137.57
2018-11-23T14:36:24.545Z,133.83
2018-11-23T14:38:52.305Z,139.97
2018-11-23T14:41:20.033Z,127.43
2018-11-23T14:43:47.749Z,137.80
2018-11-23T14:46:15.485Z,133.93
2018-11-23T14:48:43.212Z,150.00
2018-11-23T14:51:12.961Z,138.00
2018-11-23T14:53:40.705Z,158.53
2018-11-23T14:56:08.380Z,134.73
2018-11-23T14:58:36.131Z,137.00
2018-11-23T15:01:03.814Z,136.47
2018-11-23T15:03:32.485Z,138.90
2018-11-23T15:06:00.179Z,147.43
2018-11-23T15:08:27.936Z,155.67
2018-11-23T15:10:55.669Z,148.63
2018-11-23T15:13:23.374Z,138.40
2018-11-23T15:15:51.847Z,145.30
2018-11-23T15:18:19.761Z,149.10
2018-11-23T15:20:47.449Z,147.13
2018-11-23T15:23:16.885Z,130.30
2018-11-23T15:25:44.631Z,158.77
2018-11-23T15:28:12.856Z,145.57
2018-11-23T15:30:41.130Z,156.00
2018-11-23T15:33:10.084Z,143.73
2018-11-23T15:35:38.207Z,144.57
2018-11-23T15:38:10.264Z,157.50
2018-11-23T15:40:34.393Z,144.57
2018-11-23T15:43:04.621Z,136.37
2018-11-23T15:45:33.225Z,159.67
2018-11-23T15:48:01.401Z,146.20
2018-11-23T15:50:32.467Z,144.00
2018-11-23T15:53:00.178Z,154.20
2018-11-23T15:55:29.097Z,146.07
2018-11-23T15:58:00.386Z,152.77
2018-11-23T16:00:32.313Z,147.60
2018-11-23T16:03:00.153Z,166.80
2018-11-23T16:05:27.902Z,144.77
2018-11-23T16:07:56.525Z,163.13
2018-11-23T16:10:29.805Z,157.30
2018-11-23T16:12:59.337Z,146.23
2018-11-23T16:15:28.449Z,150.17
2018-11-23T16:17:56.469Z,157.50
2018-11-23T16:20:26.189Z,149.60
2018-11-23T16:22:55.284Z,147.80
2018-11-23T16:25:23.124Z,143.50
2018-11-23T16:27:52.309Z,168.90
2018-11-23T16:30:22.259Z,155.13
2018-11-23T16:32:51.049Z,142.47
2018-11-23T16:35:21.183Z,136.37
2018-11-23T16:37:49.193Z,152.23
2018-11-23T16:40:18.385Z,143.63
2018-11-23T16:42:46.121Z,163.23
2018-11-23T16:45:15.908Z,135.50
2018-11-23T16:47:44.113Z,154.83
2018-11-23T16:50:11.953Z,128.30
2018-11-23T16:52:40.435Z,143.93
2018-11-23T16:55:09.135Z,136.80
2018-11-23T16:57:37.127Z,137.27
2018-11-23T17:00:05.874Z,155.67
2018-11-23T17:02:33.645Z,142.87
2018-11-23T17:05:01.371Z,149.47
2018-11-23T17:07:29.098Z,147.97
2018-11-23T17:09:57.165Z,145.83
2018-11-23T17:12:24.865Z,143.63
2018-11-23T17:14:52.857Z,149.17
2018-11-23T17:17:20.266Z,128.23
2018-11-23T17:19:47.967Z,152.80
2018-11-23T17:22:15.746Z,133.73
2018-11-23T17:24:43.486Z,150.43
2018-11-23T17:27:11.154Z,150.33
2018-11-23T17:29:38.902Z,148.23
2018-11-23T17:32:06.574Z,130.03
2018-11-23T17:34:34.241Z,145.67
2018-11-23T17:37:01.992Z,148.13
2018-11-23T17:39:29.705Z,147.63
2018-11-23T17:41:57.449Z,149.63
2018-11-23T17:44:25.237Z,150.20
2018-11-23T17:46:52.988Z,161.43
2018-11-23T17:49:20.726Z,130.47
2018-11-23T17:51:48.382Z,142.43
2018-11-23T17:54:16.053Z,150.63
2018-11-23T17:56:43.796Z,154.90
2018-11-23T17:59:11.497Z,131.97
2018-11-23T18:01:39.229Z,153.07
2018-11-23T18:04:06.905Z,150.47
2018-11-23T18:06:34.575Z,134.13
2018-11-23T18:09:02.666Z,136.53
2018-11-23T18:11:30.397Z,132.00
2018-11-23T18:13:58.187Z,148.90
2018-11-23T18:16:25.926Z,138.03
2018-11-23T18:18:53.624Z,137.27
2018-11-23T18:21:21.345Z,151.67
2018-11-23T18:23:50.030Z,145.20
2018-11-23T18:26:17.721Z,150.57
2018-11-23T18:28:46.385Z,133.23
2018-11-23T18:31:14.067Z,132.63
2018-11-23T18:33:41.819Z,150.43
2018-11-23T18:36:09.569Z,139.87
2018-11-23T18:38:37.234Z,131.30
2018-11-23T18:41:05.237Z,135.83
2018-11-23T18:43:32.957Z,129.97
2018-11-23T18:46:00.629Z,146.57
2018-11-23T18:48:28.293Z,138.60
2018-11-23T18:50:55.990Z,127.97
2018-11-23T18:53:23.713Z,136.00
2018-11-23T18:55:51.597Z,131.70
2018-11-23T18:58:19.337Z,121.20
2018-11-23T19:00:47.005Z,140.20
2018-11-23T19:03:14.713Z,152.70
2018-11-23T19:05:42.433Z,128.13
2018-11-23T19:08:10.139Z,155.07
2018-11-23T19:10:37.777Z,139.27
2018-11-23T19:13:05.772Z,140.60
2018-11-23T19:15:33.570Z,152.93
2018-11-23T19:18:01.311Z,122.60
2018-11-23T19:20:29.026Z,140.13
2018-11-23T19:22:56.701Z,136.20
2018-11-23T19:25:24.446Z,142.23
2018-11-23T19:27:52.133Z,147.37
2018-11-23T19:30:23.522Z,143.80
2018-11-23T19:32:48.157Z,139.80
2018-11-23T19:35:15.839Z,146.30
2018-11-23T19:37:43.576Z,144.30
2018-11-23T19:40:12.696Z,142.37
2018-11-23T19:42:40.496Z,146.10
2018-11-23T19:45:09.889Z,136.27
2018-11-23T19:47:37.662Z,144.37
2018-11-23T19:50:06.979Z,139.27
2018-11-23T19:52:34.687Z,141.00
2018-11-23T19:55:02.435Z,132.17
2018-11-23T19:57:30.139Z,142.10
2018-11-23T19:59:57.908Z,142.80
2018-11-23T20:02:25.610Z,138.23
2018-11-23T20:04:53.313Z,146.47
2018-11-23T20:07:21.066Z,137.07
2018-11-23T20:09:48.822Z,137.67
2018-11-23T20:12:16.506Z,132.70
2018-11-23T20:14:44.232Z,136.30
2018-11-23T20:17:11.929Z,138.53
2018-11-23T20:19:39.669Z,140.03
2018-11-23T20:22:07.461Z,140.43
2018-11-23T20:24:35.206Z,149.87
2018-11-23T20:27:02.870Z,142.27
2018-11-23T20:29:30.554Z,146.07
2018-11-23T20:31:58.305Z,157.90
2018-11-23T20:34:26.085Z,139.40
2018-11-23T20:36:53.810Z,138.93
2018-11-23T20:39:21.470Z,140.00
2018-11-23T20:41:49.170Z,141.53
2018-11-23T20:44:16.897Z,133.77
2018-11-23T20:46:44.595Z,135.90
2018-11-23T20:49:12.322Z,128.07
2018-11-23T20:51:40.005Z,130.07
2018-11-23T20:54:08.670Z,128.70
2018-11-23T20:56:36.337Z,142.53
2018-11-23T20:59:04.075Z,140.50
2018-11-23T21:01:31.802Z,137.57
2018-11-23T21:03:59.535Z,140.70
2018-11-23T21:06:27.229Z,130.30
2018-11-23T21:08:54.893Z,146.67
2018-11-23T21:11:22.640Z,138.60
2018-11-23T21:13:50.373Z,132.17
2018-11-23T21:16:18.049Z,138.00
2018-11-23T21:18:45.777Z,125.23
2018-11-23T21:21:13.476Z,133.67
2018-11-23T21:23:41.221Z,129.40
2018-11-23T21:26:08.912Z,130.77
2018-11-23T21:28:36.657Z,133.90
2018-11-23T21:31:05.367Z,142.03
2018-11-23T21:33:33.105Z,139.60
2018-11-23T21:36:00.799Z,149.40
2018-11-23T21:38:28.540Z,140.40
2018-11-23T21:40:56.213Z,153.20
2018-11-23T21:43:24.877Z,134.20
2018-11-23T21:45:52.566Z,142.47
2018-11-23T21:48:20.309Z,147.17
2018-11-23T21:50:48.021Z,154.57
2018-11-23T21:53:15.658Z,141.13
2018-11-23T21:55:44.313Z,148.27
2018-11-23T21:58:12.009Z,150.50
2018-11-23T22:00:39.741Z,144.10
2018-11-23T22:03:07.425Z,148.63
2018-11-23T22:05:37.127Z,145.00
2018-11-23T22:08:05.798Z,156.93
2018-11-23T22:10:33.533Z,166.57
2018-11-23T22:13:01.228Z,150.90
2018-11-23T22:15:28.916Z,157.57
2018-11-23T22:17:56.893Z,159.43
2018-11-23T22:20:24.976Z,162.97
2018-11-23T22:22:52.693Z,176.97
2018-11-23T22:25:20.847Z,170.33
2018-11-23T22:27:48.545Z,162.90
2018-11-23T22:30:19.001Z,150.43
2018-11-23T22:32:46.733Z,173.70
2018-11-23T22:35:14.397Z,163.30
2018-11-23T22:37:42.081Z,158.53
2018-11-23T22:40:10.470Z,162.47
2018-11-23T22:42:38.246Z,181.73
2018-11-23T22:45:06.849Z,172.50
2018-11-23T22:47:34.556Z,180.73
2018-11-23T22:50:02.246Z,186.17
2018-11-23T22:52:29.993Z,176.23
2018-11-23T22:54:57.654Z,184.03
2018-11-23T22:57:25.406Z,167.00
2018-11-23T22:59:53.070Z,172.33
2018-11-23T23:02:20.824Z,186.93
2018-11-23T23:04:48.492Z,182.93
2018-11-23T23:07:16.170Z,173.27
2018-11-23T23:09:43.932Z,176.30
2018-11-23T23:12:11.662Z,166.33
2018-11-23T23:14:39.348Z,170.97
2018-11-23T23:17:07.086Z,160.10
2018-11-23T23:19:34.770Z,162.77
2018-11-23T23:22:02.517Z,189.57
2018-11-23T23:24:31.234Z,179.97
2018-11-23T23:26:58.889Z,166.83
2018-11-23T23:29:27.589Z,156.63
2018-11-23T23:31:55.333Z,152.63
2018-11-23T23:34:23.128Z,174.40
2018-11-23T23:36:50.869Z,178.57
2018-11-23T23:39:18.621Z,146.37
2018-11-23T23:41:46.383Z,156.60
2018-11-23T23:44:14.065Z,155.23
2018-11-23T23:46:41.851Z,157.27
2018-11-23T23:49:10.590Z,156.20
2018-11-23T23:51:38.342Z,158.53
2018-11-23T23:54:06.005Z,151.10
2018-11-23T23:56:33.682Z,153.97
2018-11-23T23:59:01.373Z,159.17
